createdAt,value
2023-02-27T00:02:03.739Z,99976.53
2023-02-27T00:04:30.446Z,99983.88
2023-02-27T00:06:57.054Z,99983.69
2023-02-27T00:09:23.928Z,99971.00
2023-02-27T00:11:50.501Z,99972.66
2023-02-27T00:14:17.024Z,99978.19
2023-02-27T00:16:44.925Z,99976.97
2023-02-27T00:19:11.481Z,99977.19
2023-02-27T00:21:38.184Z,99978.84
2023-02-27T00:24:05.922Z,99973.72
2023-02-27T00:26:32.548Z,99971.28
2023-02-27T00:28:59.089Z,99969.63
2023-02-27T00:31:25.949Z,99966.41
2023-02-27T00:33:54.065Z,99961.69
2023-02-27T00:36:20.741Z,99959.66
2023-02-27T00:38:47.394Z,99962.72
2023-02-27T00:41:14.472Z,99958.84
2023-02-27T00:43:40.985Z,99970.06
2023-02-27T00:46:07.723Z,99969.69
2023-02-27T00:48:34.266Z,99959.84
2023-02-27T00:51:02.655Z,99964.78
2023-02-27T00:53:29.220Z,99967.00
2023-02-27T00:55:55.854Z,99967.59
2023-02-27T00:58:22.429Z,99974.97
2023-02-27T01:00:49.136Z,99976.59
2023-02-27T01:03:15.736Z,99982.53
2023-02-27T01:05:42.277Z,99979.06
2023-02-27T01:08:10.254Z,99982.72
2023-02-27T01:10:37.068Z,99983.13
2023-02-27T01:13:03.664Z,99980.66
2023-02-27T01:15:30.220Z,99979.25
2023-02-27T01:17:56.831Z,99987.41
2023-02-27T01:20:23.420Z,99974.16
2023-02-27T01:22:49.953Z,99986.19
2023-02-27T01:25:18.157Z,99982.91
2023-02-27T01:27:44.868Z,99983.94
2023-02-27T01:30:12.026Z,99978.00
2023-02-27T01:32:38.810Z,99987.41
2023-02-27T01:35:06.389Z,99974.53
2023-02-27T01:37:32.923Z,99984.50
2023-02-27T01:39:59.473Z,99981.66
2023-02-27T01:42:28.837Z,99984.69
2023-02-27T01:45:18.659Z,99985.91
2023-02-27T01:47:48.373Z,99985.72
2023-02-27T01:50:17.690Z,99987.53
2023-02-27T01:52:45.872Z,99987.94
2023-02-27T01:55:14.743Z,99991.59
2023-02-27T01:57:45.989Z,99993.84
2023-02-27T02:00:14.034Z,99997.69
2023-02-27T02:02:44.281Z,99996.06
2023-02-27T02:05:10.953Z,99996.69
2023-02-27T02:07:39.608Z,99993.84
2023-02-27T02:10:07.101Z,99990.81
2023-02-27T02:12:35.643Z,100000.16
2023-02-27T02:15:04.401Z,99998.56
2023-02-27T02:17:36.958Z,100002.41
2023-02-27T02:20:38.748Z,99998.97
2023-02-27T02:23:29.621Z,99993.22
2023-02-27T02:26:33.589Z,99989.56
2023-02-27T02:29:43.606Z,99994.59
2023-02-27T02:32:41.716Z,99992.56
2023-02-27T02:35:38.927Z,99993.16
2023-02-27T02:38:43.501Z,99996.84
2023-02-27T02:41:18.682Z,100002.72
2023-02-27T02:43:54.582Z,100005.97
2023-02-27T02:46:30.734Z,100006.78
2023-02-27T02:49:03.040Z,100001.88
2023-02-27T02:51:35.434Z,99998.59
2023-02-27T02:54:09.522Z,99997.16
2023-02-27T02:56:38.969Z,99986.81
2023-02-27T02:59:12.929Z,99999.81
2023-02-27T03:01:44.019Z,99996.13
2023-02-27T03:04:14.380Z,100000.78
2023-02-27T03:06:45.993Z,100002.63
2023-02-27T03:09:18.820Z,99997.50
2023-02-27T03:11:49.056Z,100004.63
2023-02-27T03:14:24.598Z,99998.13
2023-02-27T03:16:54.372Z,100006.25
2023-02-27T03:19:24.935Z,100009.09
2023-02-27T03:21:56.255Z,100010.31
2023-02-27T03:24:28.298Z,100004.59
2023-02-27T03:26:58.347Z,100009.25
2023-02-27T03:29:35.927Z,100006.97
2023-02-27T03:32:08.294Z,100010.44
2023-02-27T03:34:39.469Z,100010.66
2023-02-27T03:37:20.168Z,100008.84
2023-02-27T03:39:50.496Z,100023.69
2023-02-27T03:42:26.340Z,100021.25
2023-02-27T03:44:59.141Z,100016.34
2023-02-27T03:47:25.959Z,100025.28
2023-02-27T03:49:52.815Z,100016.91
2023-02-27T03:52:20.437Z,100013.66
2023-02-27T03:54:53.898Z,100025.25
2023-02-27T03:57:20.563Z,100027.25
2023-02-27T03:59:47.341Z,100029.28
2023-02-27T04:02:14.081Z,100027.03
2023-02-27T04:04:40.682Z,100016.84
2023-02-27T04:07:15.111Z,100027.97
2023-02-27T04:10:00.666Z,100015.97
2023-02-27T04:12:45.522Z,100040.78
2023-02-27T04:15:22.448Z,100034.22
2023-02-27T04:17:56.140Z,100037.69
2023-02-27T04:20:43.845Z,100041.97
2023-02-27T04:23:15.994Z,100047.88
2023-02-27T04:25:54.972Z,100043.75
2023-02-27T04:28:27.301Z,100050.88
2023-02-27T04:31:05.484Z,100054.53
2023-02-27T04:33:42.983Z,100045.97
2023-02-27T04:36:14.177Z,100053.25
2023-02-27T04:38:47.460Z,100053.47
2023-02-27T04:41:21.661Z,100062.00
2023-02-27T04:43:50.026Z,100055.53
2023-02-27T04:46:20.897Z,100054.91
2023-02-27T04:48:54.044Z,100066.69
2023-02-27T04:51:25.747Z,100063.44
2023-02-27T04:53:56.346Z,100074.81
2023-02-27T04:56:29.345Z,100074.81
2023-02-27T04:59:00.262Z,100078.28
2023-02-27T05:01:34.564Z,100071.34
2023-02-27T05:04:03.045Z,100080.13
2023-02-27T05:06:34.561Z,100077.47
2023-02-27T05:09:10.295Z,100080.13
2023-02-27T05:11:44.255Z,100075.47
2023-02-27T05:14:16.325Z,100082.56
2023-02-27T05:16:47.810Z,100086.22
2023-02-27T05:19:14.586Z,100089.47
2023-02-27T05:21:49.117Z,100089.69
2023-02-27T05:24:28.835Z,100094.16
2023-02-27T05:27:12.264Z,100099.88
2023-02-27T05:29:45.033Z,100096.66
2023-02-27T05:32:20.865Z,100104.19
2023-02-27T05:34:52.662Z,100109.72
2023-02-27T05:37:24.931Z,100115.38
2023-02-27T05:39:52.846Z,100117.56
2023-02-27T05:42:26.880Z,100111.84
2023-02-27T05:44:59.255Z,100112.22
2023-02-27T05:47:31.041Z,100108.75
2023-02-27T05:50:02.823Z,100111.75
2023-02-27T05:52:31.829Z,100110.34
2023-02-27T05:55:03.403Z,100108.69
2023-02-27T05:57:38.917Z,100112.72
2023-02-27T06:00:10.398Z,100117.00
2023-02-27T06:02:37.004Z,100116.00
2023-02-27T06:05:04.388Z,100120.09
2023-02-27T06:07:31.901Z,100117.28
2023-02-27T06:09:58.655Z,100120.09
2023-02-27T06:12:25.422Z,100117.63
2023-02-27T06:14:53.402Z,100119.47
2023-02-27T06:17:20.007Z,100109.69
2023-02-27T06:19:46.684Z,100112.78
2023-02-27T06:22:13.198Z,100107.50
2023-02-27T06:24:39.756Z,100119.69
2023-02-27T06:27:06.326Z,100118.28
2023-02-27T06:29:32.886Z,100122.91
2023-02-27T06:32:00.836Z,100124.75
2023-02-27T06:34:27.617Z,100129.03
2023-02-27T06:36:54.228Z,100130.50
2023-02-27T06:39:21.013Z,100133.75
2023-02-27T06:41:47.608Z,100148.06
2023-02-27T06:44:14.147Z,100143.81
2023-02-27T06:46:40.724Z,100144.09
2023-02-27T06:49:08.673Z,100144.53
2023-02-27T06:51:35.236Z,100146.34
2023-02-27T06:54:01.802Z,100142.31
2023-02-27T06:56:28.618Z,100146.22
2023-02-27T06:58:55.361Z,100149.75
2023-02-27T07:01:21.996Z,100153.50
2023-02-27T07:03:48.587Z,100146.41
2023-02-27T07:06:16.580Z,100151.13
2023-02-27T07:09:02.158Z,100153.19
2023-02-27T07:11:29.634Z,100155.28
2023-02-27T07:13:56.619Z,100155.09
2023-02-27T07:16:23.320Z,100159.34
2023-02-27T07:18:49.849Z,100165.28
2023-02-27T07:21:17.782Z,100160.63
2023-02-27T07:23:44.546Z,100152.72
2023-02-27T07:26:11.135Z,100160.91
2023-02-27T07:28:37.840Z,100155.22
2023-02-27T07:31:04.850Z,100160.78
2023-02-27T07:33:31.648Z,100164.47
2023-02-27T07:35:58.220Z,100168.78
2023-02-27T07:38:26.190Z,100176.00
2023-02-27T07:40:52.946Z,100164.41
2023-02-27T07:43:19.490Z,100164.47
2023-02-27T07:45:46.120Z,100171.50
2023-02-27T07:48:12.772Z,100176.66
2023-02-27T07:50:39.289Z,100173.03
2023-02-27T07:53:05.888Z,100175.34
2023-02-27T07:55:33.819Z,100178.06
2023-02-27T07:58:00.362Z,100182.38
2023-02-27T08:00:26.972Z,100178.50
2023-02-27T08:02:53.636Z,100178.13
2023-02-27T08:05:20.232Z,100175.09
2023-02-27T08:07:46.913Z,100165.06
2023-02-27T08:10:13.625Z,100176.09
2023-02-27T08:12:41.641Z,100170.59
2023-02-27T08:15:09.591Z,100165.44
2023-02-27T08:17:36.144Z,100163.75
2023-02-27T08:20:02.842Z,100162.47
2023-02-27T08:22:29.672Z,100168.16
2023-02-27T08:24:56.261Z,100168.88
2023-02-27T08:27:22.804Z,100178.03
2023-02-27T08:29:50.687Z,100174.88
2023-02-27T08:32:17.383Z,100174.41
2023-02-27T08:34:44.048Z,100180.38
2023-02-27T08:37:10.781Z,100173.75
2023-02-27T08:39:37.296Z,100183.47
2023-02-27T08:42:04.017Z,100186.63
2023-02-27T08:44:30.835Z,100185.03
2023-02-27T08:46:58.781Z,100187.72
2023-02-27T08:49:25.415Z,100179.56
2023-02-27T08:51:52.439Z,100195.47
2023-02-27T08:54:20.047Z,100193.13
2023-02-27T08:56:47.990Z,100185.25
2023-02-27T08:59:14.890Z,100189.66
2023-02-27T09:01:41.931Z,100191.38
2023-02-27T09:04:10.283Z,100199.34
2023-02-27T09:06:37.370Z,100190.28
2023-02-27T09:09:04.880Z,100193.22
2023-02-27T09:11:34.425Z,100196.47
2023-02-27T09:14:01.225Z,100186.69
2023-02-27T09:16:28.335Z,100195.53
2023-02-27T09:18:55.409Z,100192.13
2023-02-27T09:21:23.550Z,100186.41
2023-02-27T09:23:50.227Z,100189.66
2023-02-27T09:26:16.865Z,100203.66
2023-02-27T09:28:43.756Z,100193.31
2023-02-27T09:31:10.476Z,100187.94
2023-02-27T09:33:38.143Z,100191.19
2023-02-27T09:36:05.299Z,100193.03
2023-02-27T09:38:34.119Z,100188.00
2023-02-27T09:41:00.863Z,100192.41
2023-02-27T09:43:32.689Z,100197.94
2023-02-27T09:46:01.145Z,100188.56
2023-02-27T09:48:30.594Z,100190.56
2023-02-27T09:50:57.932Z,100196.44
2023-02-27T09:53:27.704Z,100191.34
2023-02-27T09:55:59.790Z,100189.72
2023-02-27T09:58:37.939Z,100188.28
2023-02-27T10:01:09.944Z,100200.06
2023-02-27T10:04:13.294Z,100194.19
2023-02-27T10:06:44.193Z,100195.53
2023-02-27T10:09:28.891Z,100202.34
2023-02-27T10:12:09.777Z,100199.88
2023-02-27T10:14:42.291Z,100190.56
2023-02-27T10:17:15.543Z,100193.56
2023-02-27T10:19:45.912Z,100194.75
2023-02-27T10:22:17.075Z,100197.56
2023-02-27T10:24:50.251Z,100185.41
2023-02-27T10:27:20.797Z,100197.31
2023-02-27T10:29:47.519Z,100185.81
2023-02-27T10:32:19.219Z,100192.91
2023-02-27T10:34:50.294Z,100190.88
2023-02-27T10:37:20.771Z,100189.31
2023-02-27T10:39:50.314Z,100176.94
2023-02-27T10:42:18.520Z,100179.00
2023-02-27T10:44:45.058Z,100180.41
2023-02-27T10:47:15.209Z,100183.19
2023-02-27T10:49:43.682Z,100169.34
2023-02-27T10:52:12.585Z,100177.03
2023-02-27T10:54:40.743Z,100174.91
2023-02-27T10:57:21.646Z,100176.94
2023-02-27T10:59:53.542Z,100178.25
2023-02-27T11:02:22.832Z,100172.72
2023-02-27T11:04:52.575Z,100173.41
2023-02-27T11:07:28.853Z,100171.78
2023-02-27T11:10:01.291Z,100173.50
2023-02-27T11:12:31.433Z,100179.44
2023-02-27T11:14:59.742Z,100166.69
2023-02-27T11:17:29.241Z,100157.72
2023-02-27T11:19:56.299Z,100169.28
2023-02-27T11:22:25.098Z,100161.88
2023-02-27T11:25:09.343Z,100154.53
2023-02-27T11:27:37.431Z,100165.16
2023-02-27T11:30:06.287Z,100158.69
2023-02-27T11:32:41.460Z,100155.50
2023-02-27T11:35:22.933Z,100146.34
2023-02-27T11:37:51.319Z,100140.03
2023-02-27T11:40:20.014Z,100146.44
2023-02-27T11:42:50.698Z,100143.09
2023-02-27T11:46:19.452Z,100143.28
2023-02-27T11:48:20.828Z,100138.38
2023-02-27T11:51:16.101Z,100138.44
2023-02-27T11:54:15.080Z,100135.59
2023-02-27T11:56:45.029Z,100132.94
2023-02-27T11:59:27.718Z,100128.91
2023-02-27T12:02:01.537Z,100129.63
2023-02-27T12:04:35.258Z,100131.03
2023-02-27T12:07:09.811Z,100133.81
2023-02-27T12:09:42.606Z,100133.22
2023-02-27T12:12:17.419Z,100133.63
2023-02-27T12:14:55.123Z,100129.25
2023-02-27T12:17:26.268Z,100118.94
2023-02-27T12:20:06.488Z,100112.53
2023-02-27T12:22:37.441Z,100116.81
2023-02-27T12:25:07.405Z,100118.00
2023-02-27T12:27:43.856Z,100113.34
2023-02-27T12:30:19.289Z,100122.34
2023-02-27T12:32:53.898Z,100129.63
2023-02-27T12:35:24.308Z,100121.66
2023-02-27T12:37:51.841Z,100116.34
2023-02-27T12:40:20.499Z,100115.31
2023-02-27T12:43:03.824Z,100115.81
2023-02-27T12:46:07.528Z,100114.31
2023-02-27T12:48:47.010Z,100107.66
2023-02-27T12:51:29.824Z,100102.56
2023-02-27T12:54:08.593Z,100109.25
2023-02-27T12:56:47.021Z,100109.38
2023-02-27T12:59:28.808Z,100116.91
2023-02-27T13:02:05.240Z,100115.59
2023-02-27T13:04:44.073Z,100116.94
2023-02-27T13:07:21.437Z,100112.03
2023-02-27T13:09:51.064Z,100113.75
2023-02-27T13:12:26.170Z,100100.28
2023-02-27T13:14:59.105Z,100105.25
2023-02-27T13:17:34.190Z,100100.75
2023-02-27T13:20:07.491Z,100099.00
2023-02-27T13:22:41.115Z,100088.16
2023-02-27T13:25:12.955Z,100096.97
2023-02-27T13:27:43.839Z,100098.75
2023-02-27T13:30:15.576Z,100102.94
2023-02-27T13:32:49.677Z,100103.47
2023-02-27T13:35:29.162Z,100102.28
2023-02-27T13:37:57.710Z,100109.91
2023-02-27T13:40:34.576Z,100113.16
2023-02-27T13:43:04.588Z,100106.41
2023-02-27T13:45:52.763Z,100109.94
2023-02-27T13:48:43.387Z,100116.84
2023-02-27T13:51:26.696Z,100100.03
2023-02-27T13:54:08.346Z,100102.38
2023-02-27T13:56:35.644Z,100101.94
2023-02-27T13:59:12.055Z,100098.59
2023-02-27T14:01:39.210Z,100100.69
2023-02-27T14:04:08.045Z,100104.13
2023-02-27T14:06:43.950Z,100104.31
2023-02-27T14:09:15.251Z,100101.69
2023-02-27T14:11:53.874Z,100105.25
2023-02-27T14:14:50.621Z,100106.75
2023-02-27T14:17:40.509Z,100106.13
2023-02-27T14:20:14.110Z,100105.25
2023-02-27T14:22:57.723Z,100106.06
2023-02-27T14:25:30.320Z,100113.94
2023-02-27T14:27:58.587Z,100118.84
2023-02-27T14:30:31.988Z,100107.50
2023-02-27T14:33:03.057Z,100115.59
2023-02-27T14:35:32.492Z,100118.03
2023-02-27T14:38:08.017Z,100115.31
2023-02-27T14:40:40.081Z,100115.88
2023-02-27T14:43:17.010Z,100110.50
2023-02-27T14:45:43.655Z,100110.72
2023-02-27T14:48:10.927Z,100116.69
2023-02-27T14:50:40.502Z,100109.91
2023-02-27T14:53:21.461Z,100117.69
2023-02-27T14:55:53.704Z,100115.53
2023-02-27T14:58:22.176Z,100122.25
2023-02-27T15:00:56.805Z,100113.84
2023-02-27T15:03:26.113Z,100113.53
2023-02-27T15:05:59.040Z,100121.03
2023-02-27T15:08:29.004Z,100117.00
2023-02-27T15:10:57.478Z,100119.41
2023-02-27T15:13:28.359Z,100125.03
2023-02-27T15:16:34.447Z,100125.25
2023-02-27T15:19:13.333Z,100118.72
2023-02-27T15:21:44.812Z,100127.88
2023-02-27T15:24:22.470Z,100126.78
2023-02-27T15:26:53.115Z,100123.53
2023-02-27T15:29:23.493Z,100122.91
2023-02-27T15:31:51.541Z,100130.91
2023-02-27T15:34:18.789Z,100134.91
2023-02-27T15:36:51.117Z,100134.31
2023-02-27T15:39:20.212Z,100139.63
2023-02-27T15:41:49.229Z,100134.16
2023-02-27T15:44:17.391Z,100139.78
2023-02-27T15:46:45.799Z,100132.22
2023-02-27T15:49:17.683Z,100136.78
2023-02-27T15:51:48.821Z,100133.59
2023-02-27T15:54:15.553Z,100137.16
2023-02-27T15:56:42.763Z,100138.41
2023-02-27T15:59:15.880Z,100143.44
2023-02-27T16:01:42.769Z,100144.44
2023-02-27T16:04:20.491Z,100150.06
2023-02-27T16:06:53.182Z,100149.19
2023-02-27T16:09:23.183Z,100153.22
2023-02-27T16:11:50.034Z,100156.66
2023-02-27T16:14:36.826Z,100154.97
2023-02-27T16:17:03.649Z,100160.38
2023-02-27T16:19:31.801Z,100162.72
2023-02-27T16:22:13.784Z,100161.63
2023-02-27T16:24:40.900Z,100159.56
2023-02-27T16:27:16.487Z,100161.97
2023-02-27T16:29:45.129Z,100162.94
2023-02-27T16:32:22.718Z,100169.53
2023-02-27T16:34:50.042Z,100171.56
2023-02-27T16:37:21.149Z,100170.38
2023-02-27T16:39:49.594Z,100174.88
2023-02-27T16:42:16.174Z,100178.03
2023-02-27T16:44:43.122Z,100175.63
2023-02-27T16:47:09.844Z,100180.66
2023-02-27T16:49:36.440Z,100180.66
2023-02-27T16:52:03.006Z,100185.66
2023-02-27T16:54:30.855Z,100184.94
2023-02-27T16:56:57.486Z,100185.16
2023-02-27T16:59:29.671Z,100189.31
2023-02-27T17:01:57.474Z,100198.63
2023-02-27T17:04:26.176Z,100197.50
2023-02-27T17:06:53.800Z,100205.69
2023-02-27T17:09:20.478Z,100206.44
2023-02-27T17:11:48.658Z,100207.66
2023-02-27T17:14:15.527Z,100206.50
2023-02-27T17:16:42.185Z,100207.13
2023-02-27T17:19:08.773Z,100208.75
2023-02-27T17:21:35.303Z,100214.03
2023-02-27T17:24:02.585Z,100213.84
2023-02-27T17:26:29.508Z,100208.59
2023-02-27T17:28:58.028Z,100216.22
2023-02-27T17:31:24.951Z,100220.44
2023-02-27T17:33:52.297Z,100213.81
2023-02-27T17:36:19.513Z,100228.03
2023-02-27T17:38:46.128Z,100215.84
2023-02-27T17:41:14.061Z,100216.53
2023-02-27T17:43:40.939Z,100217.13
2023-02-27T17:46:09.875Z,100228.56
2023-02-27T17:48:37.071Z,100221.69
2023-02-27T17:51:04.731Z,100222.63
2023-02-27T17:53:32.657Z,100223.22
2023-02-27T17:55:59.252Z,100226.94
2023-02-27T17:58:25.803Z,100233.81
2023-02-27T18:00:52.348Z,100230.22
2023-02-27T18:03:20.328Z,100224.19
2023-02-27T18:05:51.037Z,100233.00
2023-02-27T18:08:18.025Z,100229.19
2023-02-27T18:10:46.910Z,100233.72
2023-02-27T18:13:13.717Z,100232.09
2023-02-27T18:15:40.300Z,100231.72
2023-02-27T18:18:06.898Z,100237.44
2023-02-27T18:20:34.978Z,100237.06
2023-02-27T18:23:01.623Z,100230.56
2023-02-27T18:25:28.212Z,100248.50
2023-02-27T18:27:55.244Z,100237.09
2023-02-27T18:30:21.834Z,100236.16
2023-02-27T18:32:48.435Z,100225.34
2023-02-27T18:35:15.384Z,100240.94
2023-02-27T18:37:43.313Z,100234.06
2023-02-27T18:40:11.282Z,100233.00
2023-02-27T18:42:37.952Z,100237.66
2023-02-27T18:45:05.511Z,100242.06
2023-02-27T18:47:32.323Z,100238.44
2023-02-27T18:49:59.395Z,100236.59
2023-02-27T18:52:26.254Z,100244.63
2023-02-27T18:54:54.208Z,100239.72
2023-02-27T18:57:20.915Z,100246.09
2023-02-27T18:59:47.616Z,100243.91
2023-02-27T19:02:15.688Z,100236.34
2023-02-27T19:04:42.262Z,100242.63
2023-02-27T19:07:08.849Z,100244.13
2023-02-27T19:09:35.436Z,100241.91
2023-02-27T19:12:03.845Z,100244.47
2023-02-27T19:14:30.573Z,100245.78
2023-02-27T19:16:57.467Z,100253.31
2023-02-27T19:19:24.066Z,100241.91
2023-02-27T19:21:50.857Z,100243.31
2023-02-27T19:24:17.442Z,100256.69
2023-02-27T19:26:44.014Z,100242.50
2023-02-27T19:29:11.917Z,100247.47
2023-02-27T19:31:38.761Z,100244.00
2023-02-27T19:34:05.687Z,100244.00
2023-02-27T19:36:32.373Z,100247.13
2023-02-27T19:38:59.230Z,100244.69
2023-02-27T19:41:25.854Z,100250.50
2023-02-27T19:43:52.950Z,100254.91
2023-02-27T19:46:23.529Z,100247.53
2023-02-27T19:48:50.398Z,100244.97
2023-02-27T19:51:17.310Z,100252.19
2023-02-27T19:53:45.898Z,100247.88
2023-02-27T19:56:15.482Z,100248.47
2023-02-27T19:58:42.105Z,100243.34
2023-02-27T20:01:08.846Z,100245.41
2023-02-27T20:03:37.191Z,100243.44
2023-02-27T20:06:04.222Z,100242.25
2023-02-27T20:08:30.727Z,100251.09
2023-02-27T20:10:58.598Z,100252.81
2023-02-27T20:13:25.723Z,100252.22
2023-02-27T20:15:56.511Z,100257.56
2023-02-27T20:18:23.315Z,100257.44
2023-02-27T20:21:00.433Z,100267.97
2023-02-27T20:23:27.208Z,100266.13
2023-02-27T20:25:53.752Z,100260.56
2023-02-27T20:28:21.086Z,100256.97
2023-02-27T20:30:47.779Z,100261.19
2023-02-27T20:33:14.611Z,100262.38
2023-02-27T20:35:41.330Z,100264.13
2023-02-27T20:38:09.268Z,100266.72
2023-02-27T20:40:35.852Z,100262.19
2023-02-27T20:43:02.474Z,100266.34
2023-02-27T20:45:29.577Z,100269.63
2023-02-27T20:47:56.211Z,100269.41
2023-02-27T20:50:22.740Z,100259.97
2023-02-27T20:52:53.810Z,100273.72
2023-02-27T20:55:21.837Z,100274.81
2023-02-27T20:57:48.378Z,100263.78
2023-02-27T21:00:15.531Z,100268.16
2023-02-27T21:02:42.109Z,100265.34
2023-02-27T21:05:09.278Z,100264.97
2023-02-27T21:07:35.882Z,100270.72
2023-02-27T21:10:02.484Z,100267.88
2023-02-27T21:12:30.692Z,100273.69
2023-02-27T21:14:57.305Z,100273.91
2023-02-27T21:17:24.104Z,100280.06
2023-02-27T21:19:50.764Z,100270.63
2023-02-27T21:22:17.533Z,100273.41
2023-02-27T21:24:44.119Z,100263.63
2023-02-27T21:27:10.643Z,100268.19
2023-02-27T21:29:38.790Z,100272.81
2023-02-27T21:32:05.463Z,100266.31
2023-02-27T21:34:32.076Z,100269.41
2023-02-27T21:37:01.086Z,100267.16
2023-02-27T21:39:27.955Z,100266.81
2023-02-27T21:41:55.113Z,100263.75
2023-02-27T21:44:23.247Z,100263.63
2023-02-27T21:46:51.629Z,100259.16
2023-02-27T21:49:21.105Z,100265.59
2023-02-27T21:51:47.725Z,100261.59
2023-02-27T21:54:15.610Z,100256.09
2023-02-27T21:56:43.474Z,100258.00
2023-02-27T21:59:10.630Z,100265.72
2023-02-27T22:01:38.197Z,100257.94
2023-02-27T22:04:06.840Z,100257.13
2023-02-27T22:06:34.266Z,100263.28
2023-02-27T22:09:03.058Z,100266.84
2023-02-27T22:11:30.080Z,100268.69
2023-02-27T22:13:57.220Z,100260.25
2023-02-27T22:16:23.988Z,100264.56
2023-02-27T22:18:50.749Z,100272.09
2023-02-27T22:21:20.751Z,100268.69
2023-02-27T22:23:47.490Z,100263.78
2023-02-27T22:26:17.096Z,100263.00
2023-02-27T22:28:43.597Z,100265.66
2023-02-27T22:31:11.990Z,100266.63
2023-02-27T22:33:39.972Z,100271.75
2023-02-27T22:36:08.285Z,100272.34
2023-02-27T22:38:36.491Z,100270.88
2023-02-27T22:41:06.449Z,100274.13
2023-02-27T22:43:33.412Z,100260.41
2023-02-27T22:46:00.087Z,100270.88
2023-02-27T22:48:26.723Z,100267.31
2023-02-27T22:51:00.384Z,100275.72
2023-02-27T22:53:26.987Z,100270.97
2023-02-27T22:55:56.426Z,100271.34
2023-02-27T22:58:23.581Z,100273.19
2023-02-27T23:00:50.165Z,100277.50
2023-02-27T23:03:16.737Z,100276.66
2023-02-27T23:05:46.702Z,100279.81
2023-02-27T23:08:13.495Z,100282.91
2023-02-27T23:10:40.810Z,100279.47
2023-02-27T23:13:08.870Z,100284.19
2023-02-27T23:15:35.688Z,100282.56
2023-02-27T23:18:02.269Z,100286.13
2023-02-27T23:20:28.827Z,100289.00
2023-02-27T23:22:55.400Z,100284.47
2023-02-27T23:25:23.066Z,100292.47
2023-02-27T23:27:49.618Z,100290.22
2023-02-27T23:30:18.078Z,100292.88
2023-02-27T23:32:44.824Z,100292.69
2023-02-27T23:35:11.995Z,100293.72
2023-02-27T23:37:39.299Z,100289.66
2023-02-27T23:40:07.579Z,100296.38
2023-02-27T23:42:34.340Z,100298.97
2023-02-27T23:45:00.877Z,100300.75
2023-02-27T23:47:28.790Z,100300.69
2023-02-27T23:49:55.367Z,100300.25
2023-02-27T23:52:21.929Z,100292.03
2023-02-27T23:54:48.649Z,100300.44
2023-02-27T23:57:15.272Z,100297.97
2023-02-27T23:59:41.778Z,100296.13
